createdAt,value
2023-03-15T00:01:46.707Z,100997.25
2023-03-15T00:06:48.367Z,100992.22
2023-03-15T00:11:51.278Z,100999.94
2023-03-15T00:16:54.806Z,101004.59
2023-03-15T00:21:56.399Z,101012.78
2023-03-15T00:26:58.059Z,101007.00
2023-03-15T00:32:00.518Z,101018.06
2023-03-15T00:37:02.254Z,101026.00
2023-03-15T00:42:04.018Z,101040.97
2023-03-15T00:47:05.650Z,101042.00
2023-03-15T00:52:07.923Z,101045.84
2023-03-15T00:57:11.957Z,101053.34
2023-03-15T01:02:13.881Z,101065.41
2023-03-15T01:07:15.554Z,101070.16
2023-03-15T01:12:18.937Z,101070.88
2023-03-15T01:17:23.817Z,101080.38
2023-03-15T01:22:26.484Z,101081.69
2023-03-15T01:27:28.148Z,101091.00
2023-03-15T01:32:30.113Z,101093.59
2023-03-15T01:37:31.810Z,101099.06
2023-03-15T01:42:33.825Z,101105.09
2023-03-15T01:47:35.649Z,101118.91
2023-03-15T01:52:41.407Z,101123.78
2023-03-15T01:57:56.149Z,101120.91
2023-03-15T02:03:05.408Z,101130.41
2023-03-15T02:08:08.739Z,101134.16
2023-03-15T02:13:17.726Z,101143.66
2023-03-15T02:18:20.789Z,101148.56
2023-03-15T02:23:22.929Z,101148.69
2023-03-15T02:28:25.320Z,101158.19
2023-03-15T02:33:36.669Z,101166.09
2023-03-15T02:38:38.272Z,101179.47
2023-03-15T02:43:42.044Z,101191.69
2023-03-15T02:48:47.112Z,101193.56
2023-03-15T02:53:48.984Z,101196.44
2023-03-15T02:58:50.910Z,101203.63
2023-03-15T03:03:52.888Z,101209.66
2023-03-15T03:08:54.835Z,101220.44
2023-03-15T03:13:57.440Z,101239.13
2023-03-15T03:19:00.103Z,101243.03
2023-03-15T03:24:04.442Z,101249.94
2023-03-15T03:29:06.093Z,101260.13
2023-03-15T03:34:09.661Z,101263.44
2023-03-15T03:39:11.458Z,101271.34
2023-03-15T03:44:13.167Z,101272.34
2023-03-15T03:49:16.288Z,101274.22
2023-03-15T03:54:21.375Z,101278.50
2023-03-15T03:59:23.189Z,101294.34
2023-03-15T04:04:31.489Z,101303.53
2023-03-15T04:09:37.403Z,101314.69
2023-03-15T04:14:39.986Z,101327.63
2023-03-15T04:19:46.939Z,101343.47
2023-03-15T04:24:50.762Z,101344.03
2023-03-15T04:30:06.129Z,101356.22
2023-03-15T04:35:17.309Z,101367.44
2023-03-15T04:40:26.081Z,101375.63
2023-03-15T04:45:41.883Z,101398.38
2023-03-15T04:51:01.883Z,101407.69
2023-03-15T04:56:18.208Z,101409.56
2023-03-15T05:01:55.372Z,101420.25
2023-03-15T05:07:09.725Z,101423.34
2023-03-15T05:12:29.854Z,101425.97
2023-03-15T05:17:38.372Z,101432.38
2023-03-15T05:23:01.255Z,101435.22
2023-03-15T05:28:28.923Z,101425.06
2023-03-15T05:33:49.049Z,101426.47
2023-03-15T05:38:56.830Z,101425.09
2023-03-15T05:44:17.945Z,101433.84
2023-03-15T05:49:37.871Z,101446.41
2023-03-15T05:54:59.728Z,101456.25
2023-03-15T06:00:39.929Z,101453.75
2023-03-15T06:05:51.417Z,101472.59
2023-03-15T06:11:01.345Z,101479.53
2023-03-15T06:16:03.339Z,101499.66
2023-03-15T06:21:06.440Z,101502.38
2023-03-15T06:26:08.284Z,101509.31
2023-03-15T06:31:11.897Z,101516.22
2023-03-15T06:36:24.922Z,101524.88
2023-03-15T06:41:26.945Z,101526.88
2023-03-15T06:46:35.592Z,101539.78
2023-03-15T06:51:38.347Z,101540.03
2023-03-15T06:56:40.304Z,101547.94
2023-03-15T07:01:42.203Z,101550.69
2023-03-15T07:06:43.954Z,101557.84
2023-03-15T07:11:45.607Z,101558.84
2023-03-15T07:16:48.273Z,101558.06
2023-03-15T07:21:49.941Z,101572.56
2023-03-15T07:26:56.373Z,101583.56
2023-03-15T07:31:58.201Z,101592.22
2023-03-15T07:36:59.813Z,101593.50
2023-03-15T07:42:01.578Z,101596.16
2023-03-15T07:47:13.284Z,101607.56
2023-03-15T07:52:15.014Z,101615.88
2023-03-15T07:57:16.762Z,101621.84
2023-03-15T08:02:18.471Z,101623.72
2023-03-15T08:07:20.176Z,101636.06
2023-03-15T08:12:22.886Z,101639.38
2023-03-15T08:17:24.581Z,101646.50
2023-03-15T08:22:26.227Z,101648.31
2023-03-15T08:27:27.907Z,101659.31
2023-03-15T08:32:29.534Z,101657.81
2023-03-15T08:37:31.341Z,101655.75
2023-03-15T08:42:32.920Z,101667.78
2023-03-15T08:47:35.448Z,101661.34
2023-03-15T08:52:37.193Z,101669.97
2023-03-15T08:57:39.352Z,101663.03
2023-03-15T09:02:40.997Z,101663.19
2023-03-15T09:07:43.639Z,101670.34
2023-03-15T09:12:48.368Z,101667.03
2023-03-15T09:17:53.353Z,101663.28
2023-03-15T09:22:57.756Z,101657.84
2023-03-15T09:27:59.479Z,101648.78
2023-03-15T09:33:01.212Z,101652.25
2023-03-15T09:38:04.081Z,101661.00
2023-03-15T09:43:14.014Z,101662.47
2023-03-15T09:48:21.880Z,101666.59
2023-03-15T09:53:32.157Z,101665.28
2023-03-15T09:58:35.458Z,101660.91
2023-03-15T10:03:47.331Z,101667.97
2023-03-15T10:08:52.494Z,101676.91
2023-03-15T10:14:03.417Z,101675.47
2023-03-15T10:19:39.652Z,101682.66
2023-03-15T10:24:56.914Z,101695.41
2023-03-15T10:30:00.543Z,101710.13
2023-03-15T10:35:02.157Z,101717.50
2023-03-15T10:40:09.781Z,101720.47
2023-03-15T10:45:22.100Z,101730.13
2023-03-15T10:50:31.611Z,101725.88
2023-03-15T10:55:37.127Z,101715.91
2023-03-15T11:00:38.764Z,101729.09
2023-03-15T11:05:43.564Z,101736.91
2023-03-15T11:10:46.992Z,101743.38
2023-03-15T11:16:04.008Z,101733.91
2023-03-15T11:21:10.484Z,101746.25
2023-03-15T11:26:31.483Z,101750.59
2023-03-15T11:31:36.327Z,101751.09
2023-03-15T11:36:41.906Z,101753.22
2023-03-15T11:41:56.560Z,101740.03
2023-03-15T11:47:03.826Z,101754.88
2023-03-15T11:52:05.865Z,101756.44
2023-03-15T11:57:36.417Z,101760.81
2023-03-15T12:02:53.071Z,101752.66
2023-03-15T12:08:18.532Z,101764.66
2023-03-15T12:13:25.014Z,101769.66
2023-03-15T12:18:31.205Z,101770.06
2023-03-15T12:23:39.218Z,101760.84
2023-03-15T12:29:13.400Z,101761.78
2023-03-15T12:34:43.031Z,101759.06
2023-03-15T12:39:46.108Z,101759.09
2023-03-15T12:44:47.725Z,101761.69
2023-03-15T12:49:49.316Z,101746.88
2023-03-15T12:55:01.182Z,101733.06
2023-03-15T13:00:12.864Z,101728.56
2023-03-15T13:05:19.947Z,101745.13
2023-03-15T13:10:34.868Z,101743.91
2023-03-15T13:15:55.088Z,101745.66
2023-03-15T13:21:13.428Z,101737.66
2023-03-15T13:26:24.986Z,101738.38
2023-03-15T13:31:31.247Z,101745.28
2023-03-15T13:36:46.061Z,101744.56
2023-03-15T13:41:50.712Z,101746.63
2023-03-15T13:46:53.790Z,101752.53
2023-03-15T13:51:55.576Z,101752.59
2023-03-15T13:57:07.471Z,101754.00
2023-03-15T14:02:17.792Z,101753.28
2023-03-15T14:07:34.056Z,101757.69
2023-03-15T14:12:35.766Z,101755.94
2023-03-15T14:17:37.368Z,101747.69
2023-03-15T14:22:42.038Z,101748.25
2023-03-15T14:27:44.172Z,101746.50
2023-03-15T14:32:55.339Z,101743.41
2023-03-15T14:38:24.061Z,101733.38
2023-03-15T14:43:25.723Z,101736.41
2023-03-15T14:48:30.082Z,101731.97
2023-03-15T14:53:37.029Z,101728.41
2023-03-15T14:58:39.060Z,101730.44
2023-03-15T15:03:48.252Z,101729.31
2023-03-15T15:08:55.242Z,101730.25
2023-03-15T15:13:58.575Z,101726.38
2023-03-15T15:19:00.179Z,101718.22
2023-03-15T15:24:04.179Z,101717.84
2023-03-15T15:29:06.019Z,101722.34
2023-03-15T15:34:08.353Z,101705.09
2023-03-15T15:39:24.516Z,101707.16
2023-03-15T15:44:26.112Z,101705.84
2023-03-15T15:49:27.712Z,101694.03
2023-03-15T15:54:35.597Z,101685.47
2023-03-15T15:59:37.311Z,101690.50
2023-03-15T16:04:41.744Z,101699.59
2023-03-15T16:09:46.380Z,101697.63
2023-03-15T16:14:48.171Z,101705.28
2023-03-15T16:19:57.232Z,101701.50
2023-03-15T16:25:01.465Z,101694.16
2023-03-15T16:30:04.894Z,101697.81
2023-03-15T16:35:07.761Z,101696.22
2023-03-15T16:40:18.435Z,101697.94
2023-03-15T16:45:20.457Z,101706.63
2023-03-15T16:50:22.487Z,101706.34
2023-03-15T16:55:26.817Z,101705.50
2023-03-15T17:00:30.846Z,101701.31
2023-03-15T17:05:32.970Z,101708.94
2023-03-15T17:10:34.715Z,101693.63
2023-03-15T17:15:36.397Z,101696.53
2023-03-15T17:20:38.204Z,101701.88
2023-03-15T17:25:40.280Z,101695.50
2023-03-15T17:30:42.269Z,101698.13
2023-03-15T17:35:47.288Z,101693.94
2023-03-15T17:40:49.031Z,101709.47
2023-03-15T17:45:52.345Z,101709.22
2023-03-15T17:50:54.014Z,101717.31
2023-03-15T17:55:55.604Z,101717.63
2023-03-15T18:00:57.749Z,101715.88
2023-03-15T18:06:01.452Z,101710.88
2023-03-15T18:11:03.176Z,101717.25
2023-03-15T18:16:05.087Z,101718.91
2023-03-15T18:21:12.892Z,101710.63
2023-03-15T18:26:14.439Z,101708.31
2023-03-15T18:31:19.219Z,101709.03
2023-03-15T18:36:21.155Z,101714.44
2023-03-15T18:41:27.321Z,101709.22
2023-03-15T18:46:29.341Z,101712.13
2023-03-15T18:51:30.934Z,101710.06
2023-03-15T18:56:34.571Z,101704.28
2023-03-15T19:01:36.282Z,101705.78
2023-03-15T19:06:37.994Z,101701.78
2023-03-15T19:11:41.848Z,101704.66
2023-03-15T19:16:43.533Z,101704.81
2023-03-15T19:21:45.207Z,101699.78
2023-03-15T19:26:46.985Z,101705.97
2023-03-15T19:31:48.792Z,101693.59
2023-03-15T19:36:52.017Z,101684.06
2023-03-15T19:41:53.929Z,101685.03
2023-03-15T19:46:55.669Z,101685.47
2023-03-15T19:51:57.442Z,101682.69
2023-03-15T19:56:59.793Z,101684.75
2023-03-15T20:02:01.622Z,101681.25
2023-03-15T20:07:03.887Z,101682.97
2023-03-15T20:12:07.175Z,101676.22
2023-03-15T20:17:09.066Z,101678.66
2023-03-15T20:22:10.846Z,101680.41
2023-03-15T20:27:13.489Z,101684.59
2023-03-15T20:32:15.219Z,101691.53
2023-03-15T20:37:17.171Z,101688.44
2023-03-15T20:42:21.776Z,101675.63
2023-03-15T20:47:23.512Z,101670.69
2023-03-15T20:52:25.532Z,101667.53
2023-03-15T20:57:27.402Z,101666.03
2023-03-15T21:02:29.138Z,101660.88
2023-03-15T21:07:30.790Z,101655.06
2023-03-15T21:12:32.957Z,101657.50
2023-03-15T21:17:34.777Z,101649.16
2023-03-15T21:22:36.912Z,101650.78
2023-03-15T21:27:38.518Z,101642.69
2023-03-15T21:32:41.715Z,101623.50
2023-03-15T21:37:43.708Z,101626.63
2023-03-15T21:42:47.876Z,101630.56
2023-03-15T21:47:49.755Z,101623.19
2023-03-15T21:52:51.405Z,101618.97
2023-03-15T21:57:53.104Z,101615.25
2023-03-15T22:02:55.928Z,101621.13
2023-03-15T22:07:57.658Z,101611.47
2023-03-15T22:12:59.274Z,101613.25
2023-03-15T22:18:02.402Z,101609.53
2023-03-15T22:23:04.733Z,101609.97
2023-03-15T22:28:07.278Z,101606.75
2023-03-15T22:33:09.771Z,101595.69
2023-03-15T22:38:12.620Z,101599.97
2023-03-15T22:43:14.648Z,101597.38
2023-03-15T22:48:16.409Z,101607.31
2023-03-15T22:53:18.183Z,101590.41
2023-03-15T22:58:20.675Z,101583.53
2023-03-15T23:03:22.543Z,101582.44
2023-03-15T23:08:24.684Z,101567.97
2023-03-15T23:13:26.411Z,101582.38
2023-03-15T23:18:28.085Z,101592.59
2023-03-15T23:23:29.792Z,101581.03
2023-03-15T23:28:32.106Z,101573.44
2023-03-15T23:33:36.895Z,101582.13
2023-03-15T23:38:39.058Z,101582.66
2023-03-15T23:43:41.585Z,101575.13
2023-03-15T23:48:43.314Z,101559.06
2023-03-15T23:53:44.974Z,101553.88
2023-03-15T23:58:46.624Z,101550.13
